Time;durP1;ratioP1;P1;durP2;ratioP2;P2;SDS_P1;SDS_P2;PMS_P1;PMS_P2;Temp;Humidity;BMP_temperature;BMP_pressure;BME280_temperature;BME280_humidity;BME280_pressure;Samples;Min_cycle;Max_cycle;Signal;HPM_P1;HPM_P2
2022/10/15 00:02:24;;;;;;;12.10;10.90;;;;;;;;;;104609;1297;36538;-35
2022/10/15 00:04:59;;;;;;;14.50;11.60;;;;;;;;;;104450;1297;230398;-36
2022/10/15 00:07:31;;;;;;;13.50;12.20;;;;;;;;;;104585;1297;38098;-34
2022/10/15 00:10:05;;;;;;;13.30;11.90;;;;;;;;;;104596;1298;37707;-35
2022/10/15 00:12:37;;;;;;;12.10;10.80;;;;;;;;;;104622;1297;36199;-35
2022/10/15 00:15:12;;;;;;;13.00;11.70;;;;;;;;;;104585;1295;37353;-35
2022/10/15 00:17:48;;;;;;;13.50;12.20;;;;;;;;;;104569;1295;37963;-35
2022/10/15 00:20:21;;;;;;;13.20;11.80;;;;;;;;;;104598;1297;38326;-35
2022/10/15 00:22:53;;;;;;;12.70;11.40;;;;;;;;;;104602;1295;37974;-35
2022/10/15 00:25:25;;;;;;;12.70;11.40;;;;;;;;;;104605;1288;37600;-35
2022/10/15 00:27:57;;;;;;;13.40;12.10;;;;;;;;;;104567;1297;36255;-35
2022/10/15 00:30:30;;;;;;;14.20;12.20;;;;;;;;;;104615;1297;35278;-35
2022/10/15 00:33:02;;;;;;;11.70;10.50;;;;;;;;;;104611;1297;35495;-35
2022/10/15 00:35:34;;;;;;;13.00;11.70;;;;;;;;;;104597;1288;37845;-34
2022/10/15 00:38:07;;;;;;;12.80;11.40;;;;;;;;;;104583;1297;36258;-34
2022/10/15 00:40:42;;;;;;;12.20;11.00;;;;;;;;;;104534;1295;36396;-35
2022/10/15 00:43:14;;;;;;;13.70;11.90;;;;;;;;;;104600;1295;35597;-34
2022/10/15 00:45:49;;;;;;;13.00;11.70;;;;;;;;;;104548;1297;38043;-35
2022/10/15 00:48:22;;;;;;;13.30;12.00;;;;;;;;;;104601;1287;37975;-35
2022/10/15 00:50:55;;;;;;;13.50;12.10;;;;;;;;;;104537;1294;36416;-35
2022/10/15 00:53:28;;;;;;;13.60;12.30;;;;;;;;;;104590;1295;36324;-35
2022/10/15 00:56:02;;;;;;;13.50;12.20;;;;;;;;;;104624;1287;36096;-35
2022/10/15 00:58:36;;;;;;;13.40;12.10;;;;;;;;;;104614;1295;37897;-36
2022/10/15 01:01:09;;;;;;;12.60;11.30;;;;;;;;;;104502;1290;38043;-35
2022/10/15 01:03:41;;;;;;;13.30;11.90;;;;;;;;;;104535;1296;38102;-36
2022/10/15 01:06:14;;;;;;;14.10;12.70;;;;;;;;;;104532;1296;36477;-35
2022/10/15 01:08:46;;;;;;;13.00;11.60;;;;;;;;;;104558;1291;35125;-35
2022/10/15 01:11:39;;;;;;;13.70;12.30;;;;;;;;;;104576;1304;38296;-35
2022/10/15 01:14:26;;;;;;;12.60;11.30;;;;;;;;;;104598;1295;38032;-36
2022/10/15 01:17:07;;;;;;;12.80;11.50;;;;;;;;;;104580;1297;36346;-36
2022/10/15 01:20:16;;;;;;;12.90;11.60;;;;;;;;;;104582;1297;36376;-36
2022/10/15 01:23:06;;;;;;;12.80;11.50;;;;;;;;;;104600;1297;37922;-36
2022/10/15 01:25:52;;;;;;;13.30;11.90;;;;;;;;;;104595;1293;37859;-36
2022/10/15 01:28:35;;;;;;;12.80;11.50;;;;;;;;;;104594;1296;37553;-36
2022/10/15 01:31:19;;;;;;;13.50;12.10;;;;;;;;;;104566;1295;37960;-36
2022/10/15 01:33:55;;;;;;;;;;;;;;;;;;104514;1298;37763;-35
2022/10/15 01:36:34;;;;;;;13.60;12.00;;;;;;;;;;104621;1287;35759;-35
2022/10/15 01:39:14;;;;;;;13.60;12.20;;;;;;;;;;104617;1297;36440;-35
2022/10/15 01:41:52;;;;;;;14.10;12.50;;;;;;;;;;104530;1296;38053;-35
2022/10/15 01:44:31;;;;;;;13.80;12.40;;;;;;;;;;104613;1297;36052;-36
2022/10/15 01:47:08;;;;;;;12.60;11.40;;;;;;;;;;104645;1303;36293;-35
2022/10/15 01:49:45;;;;;;;13.60;12.20;;;;;;;;;;104609;1287;36736;-35
2022/10/15 01:52:23;;;;;;;14.00;12.50;;;;;;;;;;104590;1291;38020;-35
2022/10/15 01:54:57;;;;;;;14.00;12.50;;;;;;;;;;104585;1297;36855;-36
2022/10/15 01:57:31;;;;;;;13.70;12.40;;;;;;;;;;104618;1295;37079;-35
2022/10/15 02:00:06;;;;;;;14.40;13.00;;;;;;;;;;104632;1297;36382;-35
2022/10/15 02:02:38;;;;;;;14.20;12.60;;;;;;;;;;104701;1297;36264;-35
2022/10/15 02:05:18;;;;;;;13.90;12.50;;;;;;;;;;104612;1297;37831;-35
2022/10/15 02:08:00;;;;;;;14.10;12.60;;;;;;;;;;104614;1294;36206;-35
2022/10/15 02:10:43;;;;;;;14.10;12.70;;;;;;;;;;104583;1295;36350;-35
2022/10/15 02:13:22;;;;;;;13.80;12.40;;;;;;;;;;104636;1291;37947;-35
2022/10/15 02:16:04;;;;;;;13.80;12.40;;;;;;;;;;104606;1304;36274;-35
2022/10/15 02:18:47;;;;;;;13.80;12.40;;;;;;;;;;104620;1288;37231;-36
2022/10/15 02:21:24;;;;;;;13.40;12.00;;;;;;;;;;104585;1294;38019;-35
2022/10/15 02:24:06;;;;;;;13.20;11.80;;;;;;;;;;104628;1288;36235;-35
2022/10/15 02:26:41;;;;;;;14.00;12.60;;;;;;;;;;104647;1295;33896;-35
2022/10/15 02:29:19;;;;;;;13.90;12.50;;;;;;;;;;104611;1297;38314;-35
2022/10/15 02:31:54;;;;;;;13.70;12.20;;;;;;;;;;104567;1295;37980;-35
2022/10/15 02:34:30;;;;;;;13.20;11.90;;;;;;;;;;104629;1293;36420;-35
2022/10/15 02:37:05;;;;;;;14.20;12.70;;;;;;;;;;104616;1304;35657;-35
2022/10/15 02:39:38;;;;;;;14.10;12.70;;;;;;;;;;104579;1295;36175;-35
2022/10/15 02:42:11;;;;;;;13.90;12.50;;;;;;;;;;104555;1287;37857;-35
2022/10/15 02:44:43;;;;;;;13.40;12.10;;;;;;;;;;104584;1291;37766;-35
2022/10/15 02:47:15;;;;;;;14.60;13.00;;;;;;;;;;104622;1304;36168;-34
2022/10/15 02:49:48;;;;;;;14.40;13.00;;;;;;;;;;104621;1288;37382;-35
2022/10/15 02:52:20;;;;;;;14.20;12.80;;;;;;;;;;104573;1298;37940;-35
2022/10/15 02:54:52;;;;;;;13.70;12.40;;;;;;;;;;104639;1283;38002;-35
2022/10/15 02:57:25;;;;;;;14.00;12.60;;;;;;;;;;104623;1288;37903;-35
2022/10/15 02:59:57;;;;;;;13.90;12.50;;;;;;;;;;104606;1301;37953;-35
2022/10/15 03:02:29;;;;;;;13.60;12.20;;;;;;;;;;104562;1287;37307;-35
2022/10/15 03:05:03;;;;;;;13.80;12.40;;;;;;;;;;104620;1295;35141;-34
2022/10/15 03:07:36;;;;;;;14.10;12.60;;;;;;;;;;104634;1297;37895;-35
2022/10/15 03:10:10;;;;;;;14.20;12.80;;;;;;;;;;104617;1291;36751;-36
2022/10/15 03:12:42;;;;;;;13.70;12.30;;;;;;;;;;104593;1297;36226;-35
2022/10/15 03:15:15;;;;;;;14.50;13.00;;;;;;;;;;104631;1288;35186;-35
2022/10/15 03:17:47;;;;;;;14.20;12.80;;;;;;;;;;104594;1287;36107;-35
2022/10/15 03:20:22;;;;;;;14.40;12.90;;;;;;;;;;104600;1297;36441;-35
2022/10/15 03:22:54;;;;;;;14.30;12.80;;;;;;;;;;104564;1297;37929;-35
2022/10/15 03:25:26;;;;;;;14.10;12.60;;;;;;;;;;104623;1291;36244;-35
2022/10/15 03:27:58;;;;;;;13.80;12.40;;;;;;;;;;104606;1301;36302;-35
2022/10/15 03:30:31;;;;;;;14.50;13.10;;;;;;;;;;104596;1297;36196;-35
2022/10/15 03:33:03;;;;;;;14.30;12.90;;;;;;;;;;104589;1297;36709;-35
2022/10/15 03:35:36;;;;;;;14.00;12.60;;;;;;;;;;104629;1303;37891;-35
2022/10/15 03:38:09;;;;;;;14.10;12.70;;;;;;;;;;104611;1287;36428;-36
2022/10/15 03:40:39;;;;;;;;;;;;;;;;;;104668;1301;36227;-35
2022/10/15 03:43:12;;;;;;;15.00;13.50;;;;;;;;;;104589;1295;35686;-35
2022/10/15 03:45:44;;;;;;;14.40;12.90;;;;;;;;;;104620;1295;37988;-35
2022/10/15 03:48:17;;;;;;;14.90;13.40;;;;;;;;;;104600;1287;37398;-34
2022/10/15 03:50:49;;;;;;;13.70;12.20;;;;;;;;;;104591;1288;38158;-34
2022/10/15 03:53:22;;;;;;;14.40;13.00;;;;;;;;;;104568;1296;36478;-35
2022/10/15 03:55:54;;;;;;;14.30;12.90;;;;;;;;;;104625;1293;36341;-35
2022/10/15 03:58:27;;;;;;;14.50;13.00;;;;;;;;;;104600;1297;38423;-35
2022/10/15 04:00:59;;;;;;;14.80;13.30;;;;;;;;;;104618;1288;38411;-35
2022/10/15 04:03:31;;;;;;;14.80;13.30;;;;;;;;;;104588;1294;37936;-34
2022/10/15 04:06:04;;;;;;;14.50;13.10;;;;;;;;;;104624;1297;36047;-35
2022/10/15 04:08:36;;;;;;;15.30;13.70;;;;;;;;;;104626;1295;38448;-35
2022/10/15 04:11:08;;;;;;;15.10;13.60;;;;;;;;;;104609;1295;35321;-35
2022/10/15 04:13:40;;;;;;;14.10;12.70;;;;;;;;;;104552;1297;37832;-35
2022/10/15 04:16:16;;;;;;;14.50;13.00;;;;;;;;;;104609;1291;37874;-36
2022/10/15 04:18:48;;;;;;;15.30;13.70;;;;;;;;;;104601;1297;36751;-35
2022/10/15 04:21:21;;;;;;;14.50;13.10;;;;;;;;;;104608;1297;36231;-35
2022/10/15 04:23:54;;;;;;;14.80;13.20;;;;;;;;;;104560;1290;38025;-35
2022/10/15 04:26:27;;;;;;;14.60;13.00;;;;;;;;;;104595;1295;37902;-35
2022/10/15 04:28:59;;;;;;;14.50;13.10;;;;;;;;;;104610;1297;38052;-35
2022/10/15 04:31:32;;;;;;;14.30;12.90;;;;;;;;;;104580;1297;36559;-35
2022/10/15 04:34:03;;;;;;;;;;;;;;;;;;104571;1301;35368;-35
2022/10/15 04:36:36;;;;;;;14.40;13.00;;;;;;;;;;104599;1295;37856;-35
2022/10/15 04:39:08;;;;;;;;;;;;;;;;;;104602;1295;37966;-35
2022/10/15 04:41:40;;;;;;;14.50;12.70;;;;;;;;;;104603;1291;37484;-35
2022/10/15 04:44:13;;;;;;;14.90;13.30;;;;;;;;;;104577;1288;36464;-35
2022/10/15 04:46:48;;;;;;;14.50;13.00;;;;;;;;;;104583;1297;35376;-35
2022/10/15 04:49:20;;;;;;;14.50;13.00;;;;;;;;;;104601;1295;38028;-35
2022/10/15 04:51:53;;;;;;;13.30;12.00;;;;;;;;;;104609;1295;38009;-35
2022/10/15 04:54:25;;;;;;;14.20;12.70;;;;;;;;;;104584;1289;35086;-35
2022/10/15 04:56:58;;;;;;;14.30;12.80;;;;;;;;;;104609;1297;36347;-35
2022/10/15 04:59:30;;;;;;;15.10;13.50;;;;;;;;;;104632;1297;36702;-35
2022/10/15 05:02:03;;;;;;;14.90;13.30;;;;;;;;;;104629;1297;35599;-35
2022/10/15 05:04:35;;;;;;;14.20;12.70;;;;;;;;;;104599;1291;36481;-34
2022/10/15 05:07:08;;;;;;;15.00;12.80;;;;;;;;;;104624;1297;36288;-35
2022/10/15 05:09:40;;;;;;;13.90;12.50;;;;;;;;;;104622;1295;36128;-35
2022/10/15 05:12:12;;;;;;;14.40;13.00;;;;;;;;;;104620;1295;37994;-35
2022/10/15 05:14:45;;;;;;;14.70;13.30;;;;;;;;;;104565;1288;37278;-34
2022/10/15 05:17:17;;;;;;;14.40;13.00;;;;;;;;;;104641;1287;38137;-36
2022/10/15 05:19:49;;;;;;;13.80;12.40;;;;;;;;;;104596;1297;37887;-36
2022/10/15 05:22:22;;;;;;;13.70;12.40;;;;;;;;;;104612;1297;37972;-36
2022/10/15 05:24:54;;;;;;;14.10;12.70;;;;;;;;;;104566;1301;37337;-34
2022/10/15 05:27:27;;;;;;;13.80;12.40;;;;;;;;;;104603;1297;35649;-35
2022/10/15 05:29:59;;;;;;;13.90;12.50;;;;;;;;;;104616;1295;36183;-34
2022/10/15 05:32:31;;;;;;;14.00;12.60;;;;;;;;;;104617;1297;37882;-35
2022/10/15 05:35:04;;;;;;;13.80;12.40;;;;;;;;;;104608;1294;36493;-35
2022/10/15 05:37:36;;;;;;;13.60;12.20;;;;;;;;;;104644;1295;36247;-35
2022/10/15 05:40:11;;;;;;;14.40;13.00;;;;;;;;;;104614;1295;37887;-35
2022/10/15 05:42:46;;;;;;;14.10;12.60;;;;;;;;;;104605;1287;38002;-35
2022/10/15 05:45:18;;;;;;;14.10;12.50;;;;;;;;;;104566;1301;37719;-35
2022/10/15 05:47:50;;;;;;;13.40;12.10;;;;;;;;;;104612;1280;36321;-35
2022/10/15 05:50:22;;;;;;;13.50;12.20;;;;;;;;;;104641;1295;35691;-35
2022/10/15 05:52:57;;;;;;;14.00;12.60;;;;;;;;;;104630;1297;36113;-36
2022/10/15 05:55:29;;;;;;;14.20;12.80;;;;;;;;;;104563;1290;37932;-36
2022/10/15 05:58:05;;;;;;;13.60;12.30;;;;;;;;;;104628;1297;37925;-35
2022/10/15 06:00:38;;;;;;;14.20;12.70;;;;;;;;;;104534;1298;37963;-34
2022/10/15 06:03:18;;;;;;;13.90;12.50;;;;;;;;;;104630;1295;36195;-35
2022/10/15 06:05:50;;;;;;;13.10;11.70;;;;;;;;;;104493;1297;35635;-34
2022/10/15 06:08:23;;;;;;;13.20;11.80;;;;;;;;;;104623;1295;37827;-35
2022/10/15 06:11:01;;;;;;;14.10;12.70;;;;;;;;;;104643;1297;37967;-34
2022/10/15 06:13:33;;;;;;;13.60;12.30;;;;;;;;;;104633;1295;36193;-35
2022/10/15 06:16:08;;;;;;;13.80;12.30;;;;;;;;;;104566;1295;36202;-36
2022/10/15 06:18:42;;;;;;;14.20;12.40;;;;;;;;;;104700;1297;35603;-36
2022/10/15 06:21:17;;;;;;;13.80;12.50;;;;;;;;;;104636;1297;38324;-36
2022/10/15 06:23:52;;;;;;;13.60;12.20;;;;;;;;;;104616;1297;36405;-36
2022/10/15 06:26:24;;;;;;;13.40;12.00;;;;;;;;;;104592;1297;37621;-37
2022/10/15 06:28:58;;;;;;;13.10;11.60;;;;;;;;;;104612;1301;34999;-39
2022/10/15 06:31:30;;;;;;;12.90;11.60;;;;;;;;;;104643;1295;38621;-35
2022/10/15 06:34:02;;;;;;;12.80;11.50;;;;;;;;;;104629;1301;36609;-38
2022/10/15 06:36:35;;;;;;;13.10;11.80;;;;;;;;;;104595;1280;37381;-37
2022/10/15 06:39:08;;;;;;;12.50;11.20;;;;;;;;;;104645;1301;36055;-37
2022/10/15 06:41:40;;;;;;;13.00;11.60;;;;;;;;;;104641;1301;35687;-37
2022/10/15 06:44:13;;;;;;;13.30;12.00;;;;;;;;;;104635;1297;38430;-36
2022/10/15 06:46:45;;;;;;;13.10;11.70;;;;;;;;;;104585;1297;37929;-36
2022/10/15 06:49:17;;;;;;;14.10;11.70;;;;;;;;;;104629;1290;36845;-37
2022/10/15 06:51:49;;;;;;;13.90;12.40;;;;;;;;;;104633;1296;37160;-37
2022/10/15 06:54:21;;;;;;;13.00;11.30;;;;;;;;;;104630;1297;36058;-36
2022/10/15 06:56:54;;;;;;;13.00;11.60;;;;;;;;;;104593;1297;37352;-36
2022/10/15 06:59:27;;;;;;;14.00;12.40;;;;;;;;;;104692;1295;37881;-36
2022/10/15 07:02:01;;;;;;;14.20;12.20;;;;;;;;;;104637;1295;37972;-36
2022/10/15 07:04:33;;;;;;;14.30;12.20;;;;;;;;;;104646;1287;37945;-38
2022/10/15 07:07:08;;;;;;;13.70;12.30;;;;;;;;;;104623;1297;36468;-37
2022/10/15 07:09:41;;;;;;;13.50;12.00;;;;;;;;;;104659;1294;37953;-36
2022/10/15 07:12:14;;;;;;;13.90;12.30;;;;;;;;;;104647;1295;37852;-36
2022/10/15 07:14:50;;;;;;;14.00;12.10;;;;;;;;;;104587;1295;37936;-37
2022/10/15 07:17:23;;;;;;;14.60;12.50;;;;;;;;;;104612;1303;36315;-37
2022/10/15 07:19:55;;;;;;;13.10;11.80;;;;;;;;;;104620;1297;35697;-37
2022/10/15 07:22:27;;;;;;;13.10;11.80;;;;;;;;;;104631;1301;37833;-36
2022/10/15 07:25:00;;;;;;;13.40;12.00;;;;;;;;;;104636;1301;38431;-36
2022/10/15 07:27:32;;;;;;;14.10;12.30;;;;;;;;;;104574;1304;36314;-37
2022/10/15 07:30:05;;;;;;;13.80;12.40;;;;;;;;;;104633;1297;36174;-36
2022/10/15 07:32:38;;;;;;;13.60;12.10;;;;;;;;;;104636;1291;35159;-36
2022/10/15 07:35:11;;;;;;;13.50;12.20;;;;;;;;;;104615;1295;35479;-36
2022/10/15 07:37:43;;;;;;;13.30;11.90;;;;;;;;;;104605;1295;36433;-37
2022/10/15 07:40:17;;;;;;;14.10;12.60;;;;;;;;;;104605;1303;37723;-36
2022/10/15 07:42:55;;;;;;;13.40;12.00;;;;;;;;;;104578;1298;36189;-36
2022/10/15 07:45:28;;;;;;;13.60;12.10;;;;;;;;;;104608;1297;35996;-37
2022/10/15 07:48:00;;;;;;;;;;;;;;;;;;104564;1291;36347;-36
2022/10/15 07:50:32;;;;;;;13.70;12.30;;;;;;;;;;104608;1297;37300;-36
2022/10/15 07:53:04;;;;;;;13.40;12.10;;;;;;;;;;104588;1291;37637;-37
2022/10/15 07:55:36;;;;;;;13.20;11.80;;;;;;;;;;104614;1297;37271;-36
2022/10/15 07:58:08;;;;;;;14.10;12.60;;;;;;;;;;104565;1284;37431;-36
2022/10/15 08:00:40;;;;;;;13.40;12.00;;;;;;;;;;104583;1297;35730;-37
2022/10/15 08:03:13;;;;;;;13.10;11.80;;;;;;;;;;104591;1297;37770;-37
2022/10/15 08:05:45;;;;;;;14.40;12.50;;;;;;;;;;103544;1294;1459940;-36
2022/10/15 08:08:20;;;;;;;13.40;11.90;;;;;;;;;;104543;1303;36707;-36
2022/10/15 08:10:53;;;;;;;13.90;12.60;;;;;;;;;;104619;1297;33991;-37
2022/10/15 08:13:25;;;;;;;13.00;11.60;;;;;;;;;;104598;1294;37999;-37
2022/10/15 08:15:59;;;;;;;14.10;12.30;;;;;;;;;;104508;1298;35243;-36
2022/10/15 08:18:31;;;;;;;12.70;11.40;;;;;;;;;;104439;1299;37366;-37
2022/10/15 08:21:03;;;;;;;;;;;;;;;;;;104512;1300;36125;-36
2022/10/15 08:23:36;;;;;;;13.40;12.00;;;;;;;;;;104496;1298;35542;-36
2022/10/15 08:26:08;;;;;;;13.60;12.10;;;;;;;;;;104493;1304;35381;-36
2022/10/15 08:28:43;;;;;;;13.10;11.80;;;;;;;;;;104438;1300;35756;-36
2022/10/15 08:31:17;;;;;;;14.10;12.70;;;;;;;;;;104656;1286;40215;-36
2022/10/15 08:33:49;;;;;;;13.30;12.00;;;;;;;;;;104388;1300;36437;-38
2022/10/15 08:36:24;;;;;;;14.30;12.90;;;;;;;;;;104469;1300;36180;-37
2022/10/15 08:38:58;;;;;;;14.40;12.90;;;;;;;;;;104463;1299;36407;-34
2022/10/15 08:41:40;;;;;;;15.50;13.90;;;;;;;;;;104513;1290;38417;-35
2022/10/15 08:44:23;;;;;;;16.80;15.10;;;;;;;;;;104544;1298;37867;-36
2022/10/15 08:47:02;;;;;;;15.80;14.20;;;;;;;;;;104520;1294;35250;-35
2022/10/15 08:49:45;;;;;;;16.30;14.70;;;;;;;;;;104439;1299;36169;-35
2022/10/15 08:52:29;;;;;;;17.00;14.90;;;;;;;;;;104511;1297;36637;-36
2022/10/15 08:55:05;;;;;;;16.30;14.60;;;;;;;;;;104512;1298;35288;-36
2022/10/15 08:57:46;;;;;;;16.70;15.10;;;;;;;;;;104536;1300;35192;-37
2022/10/15 09:00:27;;;;;;;17.20;15.40;;;;;;;;;;104481;1297;37900;-36
2022/10/15 09:03:09;;;;;;;17.10;15.40;;;;;;;;;;104540;1296;36261;-34
2022/10/15 09:05:51;;;;;;;17.80;16.10;;;;;;;;;;104516;1296;35712;-34
2022/10/15 09:08:32;;;;;;;17.50;15.80;;;;;;;;;;104512;1297;37836;-35
2022/10/15 09:11:12;;;;;;;18.30;16.40;;;;;;;;;;104484;1300;37906;-34
2022/10/15 09:13:47;;;;;;;17.00;15.30;;;;;;;;;;104509;1297;37970;-35
2022/10/15 09:16:24;;;;;;;16.20;14.60;;;;;;;;;;104500;1296;33993;-36
2022/10/15 09:18:58;;;;;;;16.80;15.20;;;;;;;;;;104516;1290;36695;-36
2022/10/15 09:21:32;;;;;;;17.60;15.90;;;;;;;;;;104642;1290;41213;-35
2022/10/15 09:24:09;;;;;;;16.30;14.70;;;;;;;;;;104543;1291;36288;-36
2022/10/15 09:26:56;;;;;;;17.60;14.80;;;;;;;;;;104552;1295;37999;-35
2022/10/15 09:29:40;;;;;;;17.40;15.70;;;;;;;;;;104442;1297;37769;-35
2022/10/15 09:32:21;;;;;;;16.70;15.00;;;;;;;;;;104499;1290;40846;-37
2022/10/15 09:35:00;;;;;;;16.80;15.10;;;;;;;;;;104530;1298;37966;-35
2022/10/15 09:37:41;;;;;;;17.90;16.10;;;;;;;;;;104527;1299;37914;-36
2022/10/15 09:40:32;;;;;;;16.60;15.00;;;;;;;;;;104504;1297;38143;-36
2022/10/15 09:43:09;;;;;;;16.60;15.00;;;;;;;;;;104605;1295;36356;-35
2022/10/15 09:45:41;;;;;;;16.90;15.20;;;;;;;;;;104615;1295;36367;-35
2022/10/15 09:48:20;;;;;;;18.10;16.40;;;;;;;;;;104565;1287;38005;-34
2022/10/15 09:51:05;;;;;;;19.70;17.80;;;;;;;;;;104515;1297;36302;-36
2022/10/15 09:53:51;;;;;;;20.90;18.90;;;;;;;;;;104550;1296;36425;-36
2022/10/15 09:56:30;;;;;;;20.70;18.70;;;;;;;;;;104540;1296;38149;-37
2022/10/15 09:59:03;;;;;;;21.90;19.80;;;;;;;;;;104529;1296;36253;-37
2022/10/15 10:01:35;;;;;;;20.80;18.70;;;;;;;;;;104540;1296;35623;-35
2022/10/15 10:04:19;;;;;;;19.90;18.00;;;;;;;;;;104631;1295;36500;-36
2022/10/15 10:06:55;;;;;;;21.40;19.40;;;;;;;;;;104640;1291;37812;-37
2022/10/15 10:09:31;;;;;;;20.10;18.20;;;;;;;;;;104632;1295;35274;-36
2022/10/15 10:12:17;;;;;;;20.30;18.30;;;;;;;;;;104534;1295;36209;-36
2022/10/15 10:15:00;;;;;;;20.50;18.60;;;;;;;;;;104561;1291;38490;-37
2022/10/15 10:17:33;;;;;;;19.80;17.90;;;;;;;;;;104533;1293;37983;-36
2022/10/15 10:20:27;;;;;;;19.90;18.00;;;;;;;;;;104561;1291;37854;-36
2022/10/15 10:23:02;;;;;;;18.80;17.00;;;;;;;;;;104585;1297;38102;-36
2022/10/15 10:25:41;;;;;;;19.00;17.10;;;;;;;;;;104642;1295;37926;-37
2022/10/15 10:28:27;;;;;;;18.50;16.80;;;;;;;;;;104613;1290;36738;-37
2022/10/15 10:31:07;;;;;;;19.10;17.20;;;;;;;;;;104596;1288;33895;-41
2022/10/15 10:33:47;;;;;;;19.10;17.30;;;;;;;;;;104534;1297;39971;-36
2022/10/15 10:36:28;;;;;;;17.40;15.90;;;;;;;;;;104585;1290;36155;-36
2022/10/15 10:39:12;;;;;;;18.40;16.60;;;;;;;;;;104499;1281;38993;-35
2022/10/15 10:41:59;;;;;;;17.10;15.40;;;;;;;;;;104513;1296;36637;-34
2022/10/15 10:44:35;;;;;;;16.00;14.30;;;;;;;;;;104458;1293;35475;-35
2022/10/15 10:47:15;;;;;;;16.00;14.50;;;;;;;;;;104637;1283;38238;-34
2022/10/15 10:49:54;;;;;;;17.30;15.40;;;;;;;;;;104603;1297;37797;-34
2022/10/15 10:52:32;;;;;;;22.40;16.80;;;;;;;;;;104469;1295;36268;-32
2022/10/15 10:55:15;;;;;;;17.30;15.50;;;;;;;;;;104526;1296;36255;-32
2022/10/15 10:57:51;;;;;;;16.90;15.30;;;;;;;;;;104542;1298;37963;-32
2022/10/15 11:00:44;;;;;;;16.80;15.10;;;;;;;;;;104490;1295;37839;-32
2022/10/15 11:03:28;;;;;;;16.20;14.60;;;;;;;;;;104952;1295;35377;-33
2022/10/15 11:06:28;;;;;;;15.90;14.40;;;;;;;;;;104558;1295;38023;-33
2022/10/15 11:09:16;;;;;;;15.70;14.10;;;;;;;;;;104608;1297;36878;-32
2022/10/15 11:12:11;;;;;;;16.10;14.50;;;;;;;;;;104624;1297;38351;-32
2022/10/15 11:14:55;;;;;;;16.20;14.50;;;;;;;;;;104605;1297;38118;-32
2022/10/15 11:17:40;;;;;;;15.30;13.80;;;;;;;;;;104637;1295;36201;-33
2022/10/15 11:20:23;;;;;;;16.20;14.40;;;;;;;;;;104623;1297;37985;-33
2022/10/15 11:23:16;;;;;;;15.20;13.70;;;;;;;;;;104584;1295;36568;-33
2022/10/15 11:25:58;;;;;;;15.50;13.90;;;;;;;;;;104550;1296;35428;-32
2022/10/15 11:28:49;;;;;;;15.20;13.70;;;;;;;;;;104552;1296;38032;-32
2022/10/15 11:31:33;;;;;;;15.20;13.80;;;;;;;;;;104548;1296;36242;-32
2022/10/15 11:34:24;;;;;;;15.30;13.80;;;;;;;;;;104559;1296;35385;-32
2022/10/15 11:37:13;;;;;;;14.60;13.10;;;;;;;;;;104597;1297;38324;-33
2022/10/15 11:40:03;;;;;;;14.90;13.40;;;;;;;;;;104614;1290;36189;-33
2022/10/15 11:42:51;;;;;;;14.40;12.90;;;;;;;;;;104619;1297;37918;-32
2022/10/15 11:45:49;;;;;;;15.30;13.80;;;;;;;;;;104500;1294;36263;-33
2022/10/15 11:48:38;;;;;;;15.70;14.10;;;;;;;;;;104549;1301;37862;-33
2022/10/15 11:51:26;;;;;;;16.80;15.10;;;;;;;;;;104530;1296;37845;-33
2022/10/15 11:54:25;;;;;;;16.90;15.20;;;;;;;;;;104528;1297;37553;-34
2022/10/15 11:56:59;;;;;;;15.50;13.90;;;;;;;;;;104594;1297;38176;-34
2022/10/15 11:59:40;;;;;;;16.30;14.60;;;;;;;;;;104636;1297;36410;-34
2022/10/15 12:02:17;;;;;;;16.10;14.50;;;;;;;;;;104650;1292;37898;-34
2022/10/15 12:04:56;;;;;;;16.10;14.50;;;;;;;;;;104582;1296;38139;-34
2022/10/15 12:07:34;;;;;;;16.20;14.60;;;;;;;;;;104525;1296;36688;-33
2022/10/15 12:10:32;;;;;;;15.30;13.90;;;;;;;;;;104585;1296;36608;-33
2022/10/15 12:13:11;;;;;;;15.80;14.10;;;;;;;;;;104560;1296;35427;-33
2022/10/15 12:15:50;;;;;;;16.20;14.50;;;;;;;;;;104582;1297;37869;-34
2022/10/15 12:18:31;;;;;;;15.50;14.00;;;;;;;;;;104637;1295;35246;-34
2022/10/15 12:21:04;;;;;;;15.60;13.90;;;;;;;;;;104639;1295;35694;-34
2022/10/15 12:23:44;;;;;;;16.50;14.60;;;;;;;;;;104618;1299;37916;-34
2022/10/15 12:26:39;;;;;;;15.10;13.50;;;;;;;;;;104527;1290;43508;-34
2022/10/15 12:29:31;;;;;;;14.60;12.90;;;;;;;;;;104396;1296;35466;-34
2022/10/15 12:32:16;;;;;;;15.20;13.70;;;;;;;;;;104583;1297;37925;-34
2022/10/15 12:34:48;;;;;;;14.70;13.20;;;;;;;;;;104498;1296;36463;-34
2022/10/15 12:37:24;;;;;;;15.30;13.70;;;;;;;;;;104628;1295;36486;-33
2022/10/15 12:40:04;;;;;;;14.90;13.50;;;;;;;;;;104632;1297;37927;-33
2022/10/15 12:42:40;;;;;;;14.10;12.80;;;;;;;;;;104646;1295;37814;-32
2022/10/15 12:45:26;;;;;;;14.40;12.90;;;;;;;;;;104563;1297;37410;-34
2022/10/15 12:48:19;;;;;;;15.70;13.40;;;;;;;;;;104561;1296;36886;-34
2022/10/15 12:50:51;;;;;;;14.80;13.20;;;;;;;;;;104572;1296;36177;-32
2022/10/15 12:53:43;;;;;;;14.80;13.20;;;;;;;;;;104515;1291;36413;-32
2022/10/15 12:56:24;;;;;;;14.80;13.20;;;;;;;;;;104537;1290;37980;-35
2022/10/15 12:58:57;;;;;;;14.70;13.10;;;;;;;;;;104611;1295;37485;-33
2022/10/15 13:01:52;;;;;;;14.60;13.10;;;;;;;;;;104618;1297;38394;-33
2022/10/15 13:12:00;;;;;;;14.20;12.80;;;;;;;;;;101637;1345;559968;-35
2022/10/15 13:14:37;;;;;;;14.00;12.60;;;;;;;;;;103992;1319;23982;-26
2022/10/15 13:17:18;;;;;;;14.40;13.00;;;;;;;;;;104036;1308;23558;-27
2022/10/15 13:23:29;;;;;;;14.20;12.70;;;;;;;;;;101725;1336;559735;-31
2022/10/15 13:26:25;;;;;;;13.90;12.40;;;;;;;;;;103763;1307;105363;-31
2022/10/15 13:29:00;;;;;;;14.30;12.90;;;;;;;;;;102343;1307;2284332;-33
2022/10/15 13:31:36;;;;;;;14.00;12.60;;;;;;;;;;104347;1307;22493;-31
2022/10/15 13:34:18;;;;;;;13.50;12.10;;;;;;;;;;104119;1316;22912;-32
2022/10/15 13:36:51;;;;;;;13.40;11.90;;;;;;;;;;103786;1307;277847;-32
2022/10/15 13:39:38;;;;;;;11.90;10.70;;;;;;;;;;103938;1308;43728;-36
2022/10/15 13:42:19;;;;;;;12.70;11.40;;;;;;;;;;104119;1314;22501;-32
2022/10/15 13:45:03;;;;;;;12.40;11.20;;;;;;;;;;104110;1298;45418;-31
2022/10/15 13:47:41;;;;;;;11.70;10.50;;;;;;;;;;104196;1319;24542;-34
2022/10/15 13:50:23;;;;;;;12.40;11.10;;;;;;;;;;104325;1298;24206;-32
2022/10/15 13:53:03;;;;;;;12.90;10.60;;;;;;;;;;104190;1295;24532;-35
2022/10/15 13:55:46;;;;;;;11.00;9.70;;;;;;;;;;104154;1316;22935;-31
2022/10/15 13:58:24;;;;;;;12.60;10.50;;;;;;;;;;104070;1306;25040;-29
2022/10/15 14:01:03;;;;;;;9.90;8.40;;;;;;;;;;104080;1316;22829;-31
2022/10/15 14:03:45;;;;;;;10.00;9.00;;;;;;;;;;104121;1301;24710;-30
2022/10/15 14:06:22;;;;;;;11.60;9.60;;;;;;;;;;105044;1303;22482;-34
2022/10/15 14:08:56;;;;;;;9.90;7.90;;;;;;;;;;105090;1294;22933;-34
2022/10/15 14:11:30;;;;;;;8.50;7.30;;;;;;;;;;105212;1284;22564;-33
2022/10/15 14:14:02;;;;;;;9.20;7.80;;;;;;;;;;105174;1294;22545;-34
2022/10/15 14:16:45;;;;;;;10.30;8.00;;;;;;;;;;105206;1301;22480;-34
2022/10/15 14:19:25;;;;;;;8.80;7.30;;;;;;;;;;105090;1304;22537;-32
2022/10/15 14:22:01;;;;;;;9.60;8.40;;;;;;;;;;105145;1294;24269;-34
2022/10/15 14:24:37;;;;;;;8.60;6.70;;;;;;;;;;105149;1288;22468;-32
2022/10/15 14:27:15;;;;;;;9.30;7.70;;;;;;;;;;105155;1301;22744;-37
2022/10/15 14:29:55;;;;;;;8.40;7.00;;;;;;;;;;105290;1300;22474;-37
2022/10/15 14:32:44;;;;;;;7.80;7.00;;;;;;;;;;105272;1294;25291;-37
2022/10/15 14:35:32;;;;;;;9.10;7.20;;;;;;;;;;105142;1302;24910;-37
2022/10/15 14:38:15;;;;;;;7.60;6.60;;;;;;;;;;105152;1302;25338;-36
2022/10/15 14:41:06;;;;;;;8.70;6.10;;;;;;;;;;105025;1294;33269;-34
2022/10/15 14:43:39;;;;;;;7.60;6.30;;;;;;;;;;105138;1302;22481;-26
2022/10/15 14:46:17;;;;;;;7.40;5.70;;;;;;;;;;105218;1301;22482;-25
2022/10/15 14:48:50;;;;;;;7.40;6.10;;;;;;;;;;105214;1301;22495;-25
2022/10/15 14:51:27;;;;;;;7.60;6.10;;;;;;;;;;105226;1300;22483;-26
2022/10/15 14:54:00;;;;;;;7.50;5.90;;;;;;;;;;105121;1285;22777;-26
2022/10/15 14:56:36;;;;;;;7.20;6.00;;;;;;;;;;105145;1294;22468;-26
2022/10/15 14:59:14;;;;;;;6.80;5.20;;;;;;;;;;105175;1295;22486;-26
2022/10/15 15:01:55;;;;;;;7.00;5.70;;;;;;;;;;105188;1278;22466;-24
2022/10/15 15:04:51;;;;;;;7.80;6.70;;;;;;;;;;105106;1297;22477;-27
2022/10/15 15:07:25;;;;;;;7.90;6.30;;;;;;;;;;105269;1301;22486;-25
2022/10/15 15:09:58;;;;;;;7.70;6.10;;;;;;;;;;105193;1297;22481;-26
2022/10/15 15:12:31;;;;;;;6.90;5.90;;;;;;;;;;105248;1288;22548;-28
2022/10/15 15:15:05;;;;;;;7.70;5.80;;;;;;;;;;105191;1285;23013;-28
2022/10/15 15:17:38;;;;;;;7.70;6.30;;;;;;;;;;105241;1288;22504;-29